Time;durP1;ratioP1;P1;durP2;ratioP2;P2;SDS_P1;SDS_P2;PMS_P1;PMS_P2;Temp;Humidity;BMP_temperature;BMP_pressure;BME280_temperature;BME280_humidity;BME280_pressure;Samples;Min_cycle;Max_cycle;Signal;HPM_P1;HPM_P2
2022/02/10 07:52:32;;;;;;;21.43;8.10;;;7.50;99.90;;;;;;4793419;23;20254;-74
2022/02/10 07:55:24;;;;;;;17.80;7.73;;;7.60;99.90;;;;;;4954851;29;20334;-73
2022/02/10 07:58:09;;;;;;;22.87;7.70;;;7.60;99.90;;;;;;4948166;29;20641;-74
2022/02/10 08:50:31;;;;;;;15.03;6.70;;;7.90;99.90;;;;;;5089134;28;20205;-73
2022/02/10 08:55:56;;;;;;;15.47;6.93;;;7.90;99.90;;;;;;5050362;28;20200;-73
2022/02/10 08:58:51;;;;;;;15.60;6.67;;;7.90;99.90;;;;;;5089208;28;20222;-73
2022/02/10 09:04:23;;;;;;;12.80;6.40;;;8.00;99.90;;;;;;5150310;27;20608;-73
2022/02/10 09:07:07;;;;;;;17.37;6.93;;;8.20;99.90;;;;;;5147193;27;20307;-73
2022/02/10 09:10:03;;;;;;;14.70;6.53;;;8.30;99.90;;;;;;5123425;28;20208;-72
2022/02/10 09:15:43;;;;;;;15.37;6.27;;;8.50;99.90;;;;;;5106037;28;20231;-73
2022/02/10 09:21:26;;;;;;;14.13;5.60;;;8.40;99.90;;;;;;5108630;28;20204;-73
2022/02/10 10:00:20;;;;;;;7.00;3.63;;;8.20;99.90;;;;;;5123870;27;20635;-73
2022/02/10 10:02:53;;;;;;;7.47;3.67;;;8.20;99.90;;;;;;5128397;28;20257;-73
2022/02/10 10:05:29;;;;;;;6.73;3.13;;;8.30;99.90;;;;;;5119406;28;20717;-74
2022/02/10 10:08:15;;;;;;;7.87;3.93;;;8.40;99.90;;;;;;5118760;28;20208;-73
2022/02/10 10:16:33;;;;;;;6.90;3.03;;;8.30;99.90;;;;;;5090271;28;20206;-76
2022/02/10 10:19:10;;;;;;;7.63;3.50;;;8.40;99.90;;;;;;5093731;28;20767;-74
2022/02/10 10:21:47;;;;;;;6.53;3.47;;;8.30;99.90;;;;;;5091928;28;20255;-74
2022/02/10 10:49:54;;;;;;;5.47;2.90;;;8.90;99.90;;;;;;5094398;28;20199;-74
2022/02/10 10:52:49;;;;;;;5.63;3.00;;;9.00;99.90;;;;;;5093884;28;20233;-73
2022/02/10 10:55:35;;;;;;;4.63;2.83;;;9.00;99.90;;;;;;5093791;28;20217;-73
2022/02/10 10:58:10;;;;;;;5.73;2.70;;;9.10;99.90;;;;;;5099444;28;20249;-75
2022/02/10 11:01:06;;;;;;;7.03;2.50;;;9.30;99.90;;;;;;5093286;28;20223;-75
2022/02/10 11:03:51;;;;;;;5.47;2.53;;;9.40;99.90;;;;;;5090860;28;20252;-75
2022/02/10 11:07:24;;;;;;;7.93;3.30;;;9.50;99.90;;;;;;5094933;28;20656;-75
2022/02/10 11:38:15;;;;;;;5.90;2.80;;;10.80;99.90;;;;;;5093156;28;20804;-74
2022/02/10 11:41:24;;;;;;;4.43;2.40;;;10.90;99.90;;;;;;5092852;28;20263;-75
2022/02/10 11:44:11;;;;;;;3.60;2.13;;;10.80;99.90;;;;;;5093566;28;20234;-75
2022/02/10 14:09:58;;;;;;;4.63;1.10;;;10.80;99.90;;;;;;5093510;28;20557;-76
2022/02/10 14:12:47;;;;;;;4.60;0.80;;;10.80;99.90;;;;;;5095671;28;20665;-76
2022/02/10 14:15:25;;;;;;;1.57;0.87;;;10.80;99.90;;;;;;5094768;28;20260;-76
2022/02/10 14:18:05;;;;;;;1.13;0.83;;;10.80;99.90;;;;;;5083177;28;20215;-76
2022/02/10 14:20:49;;;;;;;2.67;1.07;;;10.70;99.90;;;;;;5075077;28;20207;-76
2022/02/10 14:23:19;;;;;;;2.53;1.20;;;10.70;99.90;;;;;;5073926;28;20646;-75
2022/02/10 14:25:53;;;;;;;3.47;1.10;;;10.60;99.90;;;;;;5074674;28;20604;-76
2022/02/10 14:28:22;;;;;;;2.50;1.10;;;10.50;99.90;;;;;;5074531;28;20230;-76
2022/02/10 14:30:50;;;;;;;5.37;1.30;;;10.50;99.90;;;;;;5082374;28;20600;-74
2022/02/10 14:33:22;;;;;;;2.90;1.23;;;10.60;99.90;;;;;;5094000;28;20195;-74
2022/02/10 14:35:55;;;;;;;2.83;1.30;;;10.70;99.90;;;;;;5092183;28;20195;-74
2022/02/10 14:38:37;;;;;;;4.13;1.43;;;10.80;99.90;;;;;;5089815;28;20219;-75
2022/02/10 14:41:32;;;;;;;2.40;1.10;;;10.80;99.90;;;;;;5091612;28;20206;-74
2022/02/10 15:53:09;;;;;;;3.37;1.77;;;8.60;99.90;;;;;;5093657;28;20706;-77
2022/02/10 15:56:06;;;;;;;4.40;2.03;;;8.80;99.90;;;;;;5092672;28;20619;-82
2022/02/10 16:17:58;;;;;;;5.90;1.83;;;7.80;99.90;;;;;;5047199;28;20223;-75
2022/02/10 16:20:29;;;;;;;5.67;1.60;;;7.80;99.90;;;;;;5073302;28;20203;-74
2022/02/10 16:23:00;;;;;;;2.83;1.43;;;7.80;99.90;;;;;;5072181;28;20206;-77
2022/02/10 16:25:28;;;;;;;11.23;1.67;;;7.80;99.90;;;;;;5072797;28;20608;-76
2022/02/10 16:28:08;;;;;;;3.97;2.07;;;7.90;99.90;;;;;;5073139;28;20223;-75
2022/02/10 16:30:37;;;;;;;6.93;2.37;;;8.00;99.90;;;;;;5074187;28;20207;-73
2022/02/10 16:33:05;;;;;;;2.63;1.73;;;8.10;99.90;;;;;;5093134;28;20209;-75
2022/02/10 16:35:32;;;;;;;7.23;2.10;;;7.90;99.90;;;;;;5093351;28;20213;-74
2022/02/10 16:38:00;;;;;;;4.77;1.93;;;7.90;99.90;;;;;;5078936;28;20253;-76
2022/02/10 16:40:27;;;;;;;4.47;2.20;;;8.00;99.90;;;;;;5072526;28;20657;-76
2022/02/10 16:42:54;;;;;;;4.57;2.23;;;7.90;99.90;;;;;;5072727;28;20207;-76
2022/02/10 16:45:21;;;;;;;5.10;2.37;;;7.90;99.90;;;;;;5085509;28;20201;-77
2022/02/10 16:47:50;;;;;;;5.37;2.20;;;7.90;99.90;;;;;;5092997;28;20229;-77
2022/02/10 16:50:17;;;;;;;4.23;1.77;;;8.00;99.90;;;;;;5093015;28;20198;-78
2022/02/10 16:52:47;;;;;;;6.77;2.30;;;7.90;99.90;;;;;;5093109;28;20217;-77
2022/02/10 16:55:23;;;;;;;5.70;2.07;;;7.80;99.90;;;;;;5088107;28;20572;-74
2022/02/10 16:58:03;;;;;;;6.23;2.47;;;7.80;99.90;;;;;;5092640;28;20580;-75
2022/02/10 17:03:43;;;;;;;2.83;1.77;;;7.80;99.90;;;;;;5107630;27;20547;-72
2022/02/10 17:17:56;;;;;;;4.13;2.03;;;7.40;99.90;;;;;;5103388;28;20209;-73
2022/02/10 17:20:39;;;;;;;3.80;1.60;;;7.30;99.90;;;;;;5109887;28;20212;-72
2022/02/10 17:26:00;;;;;;;2.37;1.30;;;7.20;99.90;;;;;;5104871;28;20283;-74
2022/02/10 17:28:27;;;;;;;2.63;1.00;;;7.20;99.90;;;;;;5104964;28;20226;-75
2022/02/10 17:33:39;;;;;;;2.80;1.73;;;7.20;99.90;;;;;;5092797;28;20629;-75
2022/02/10 17:36:13;;;;;;;7.63;2.20;;;7.30;99.90;;;;;;5109906;28;20216;-73
2022/02/10 17:41:46;;;;;;;2.57;1.67;;;7.30;99.90;;;;;;5109447;28;20201;-75
2022/02/10 17:51:25;;;;;;;5.53;1.67;;;7.50;99.90;;;;;;5081779;28;20191;-73
2022/02/10 17:52:36;;;;;;;1.97;1.40;;;7.20;99.90;;;;;;5053181;28;20297;-76
2022/02/10 17:55:05;;;;;;;1.80;1.10;;;7.10;99.90;;;;;;5088711;28;20199;-74
2022/02/10 17:57:32;;;;;;;2.07;0.90;;;7.10;99.90;;;;;;5089450;28;20229;-74
2022/02/10 17:59:59;;;;;;;1.63;0.60;;;7.00;99.90;;;;;;5094430;28;20198;-75
2022/02/10 18:02:26;;;;;;;3.53;0.73;;;6.90;99.90;;;;;;5099020;28;20300;-73
2022/02/10 18:04:54;;;;;;;2.20;0.70;;;6.90;99.90;;;;;;5099085;28;20197;-73
2022/02/10 18:07:21;;;;;;;2.30;0.60;;;7.00;99.90;;;;;;5099128;28;20545;-73
2022/02/10 18:10:07;;;;;;;4.00;0.80;;;6.90;99.90;;;;;;5094419;28;20281;-73
2022/02/10 18:15:34;;;;;;;2.07;0.50;;;6.70;99.90;;;;;;5048628;28;20195;-73
2022/02/10 18:18:10;;;;;;;0.83;0.33;;;6.60;99.90;;;;;;5075264;28;20229;-73
2022/02/10 18:20:40;;;;;;;2.70;0.50;;;6.40;99.90;;;;;;5075454;28;20245;-73
2022/02/10 18:23:14;;;;;;;0.73;0.40;;;6.40;99.90;;;;;;5075312;28;20234;-73
2022/02/10 18:25:50;;;;;;;1.70;0.50;;;6.40;99.90;;;;;;5075151;28;20199;-72
2022/02/10 18:28:26;;;;;;;8.40;0.60;;;6.30;99.90;;;;;;5075275;28;20258;-73
2022/02/10 18:34:09;;;;;;;0.57;0.50;;;6.40;99.90;;;;;;5087728;28;20280;-73
2022/02/10 19:09:34;;;;;;;2.40;0.30;;;5.50;99.90;;;;;;5074391;28;20223;-74
2022/02/10 19:12:03;;;;;;;1.17;0.40;;;5.60;99.90;;;;;;5076466;28;20200;-74
2022/02/10 19:14:36;;;;;;;0.73;0.40;;;5.50;99.90;;;;;;5082169;28;20277;-74
2022/02/10 19:17:04;;;;;;;1.40;0.30;;;5.40;99.90;;;;;;5081897;28;20300;-75
2022/02/10 19:19:31;;;;;;;0.43;0.30;;;5.50;99.90;;;;;;5082695;28;20300;-74
2022/02/10 19:21:58;;;;;;;5.50;0.57;;;5.60;99.90;;;;;;5082859;28;20233;-75
2022/02/10 19:24:24;;;;;;;2.43;0.50;;;5.80;99.90;;;;;;5093398;28;20556;-74
2022/02/10 19:26:51;;;;;;;0.50;0.40;;;5.90;99.90;;;;;;5093669;28;20214;-74
2022/02/10 19:29:19;;;;;;;0.40;0.30;;;5.90;99.90;;;;;;5094486;28;20226;-74
2022/02/10 19:31:49;;;;;;;0.70;0.40;;;5.90;99.90;;;;;;5094646;28;20203;-74
2022/02/10 19:34:16;;;;;;;0.70;0.53;;;5.80;99.90;;;;;;5093596;28;20198;-73
2022/02/10 19:36:43;;;;;;;0.60;0.40;;;5.70;99.90;;;;;;5094581;28;20213;-74
2022/02/10 19:39:15;;;;;;;2.27;0.73;;;5.60;99.90;;;;;;5094695;28;20218;-74
2022/02/10 19:41:46;;;;;;;0.90;0.40;;;5.60;99.90;;;;;;5094235;28;20668;-74
2022/02/10 19:44:13;;;;;;;1.00;0.53;;;5.60;99.90;;;;;;5094070;28;20203;-74
2022/02/10 19:46:41;;;;;;;0.77;0.53;;;5.60;99.90;;;;;;5080975;28;20658;-74
2022/02/10 19:49:14;;;;;;;1.97;0.87;;;5.50;99.90;;;;;;5073788;28;20234;-75
2022/02/10 19:51:41;;;;;;;3.30;0.73;;;5.40;99.90;;;;;;5084995;22;20227;-73
2022/02/10 19:54:07;;;;;;;2.27;0.60;;;5.30;99.90;;;;;;5073014;28;20199;-73
2022/02/10 19:56:36;;;;;;;3.17;0.93;;;5.30;99.90;;;;;;5073407;28;20199;-73
2022/02/10 19:59:04;;;;;;;2.73;0.93;;;5.30;99.90;;;;;;5073461;28;20627;-68
2022/02/10 20:01:31;;;;;;;1.97;0.87;;;5.30;99.90;;;;;;5073644;28;20298;-74
2022/02/10 20:04:00;;;;;;;1.80;1.07;;;5.20;99.90;;;;;;5061086;28;20226;-74
2022/02/10 20:06:29;;;;;;;1.70;1.00;;;5.20;99.90;;;;;;5049088;28;20200;-70
2022/02/10 20:08:55;;;;;;;2.90;1.10;;;5.20;99.90;;;;;;5050731;28;20702;-74
2022/02/10 20:11:22;;;;;;;1.40;0.90;;;5.10;99.90;;;;;;5051747;28;20544;-73
2022/02/10 20:13:49;;;;;;;1.27;1.00;;;5.10;99.90;;;;;;5051372;28;20212;-75
2022/02/10 20:16:16;;;;;;;2.33;1.00;;;5.10;99.90;;;;;;5052344;28;20196;-69
2022/02/10 20:18:45;;;;;;;2.13;0.90;;;5.10;99.90;;;;;;5052524;28;20220;-70
2022/02/10 20:21:12;;;;;;;1.53;0.80;;;5.20;99.90;;;;;;5052430;28;20204;-74
2022/02/10 20:23:40;;;;;;;3.40;0.90;;;5.20;99.90;;;;;;5060617;28;20227;-72
2022/02/10 20:26:08;;;;;;;1.23;0.70;;;5.20;99.90;;;;;;5072598;28;20304;-73
2022/02/10 20:28:34;;;;;;;1.03;0.60;;;5.20;99.90;;;;;;5072375;28;20589;-75
2022/02/10 20:31:02;;;;;;;2.80;0.90;;;5.10;99.90;;;;;;5072550;28;20205;-75
2022/02/10 20:33:30;;;;;;;1.50;0.90;;;5.10;99.90;;;;;;5058204;28;20736;-75
2022/02/10 20:35:59;;;;;;;2.00;0.80;;;5.10;99.90;;;;;;5052287;28;20274;-75
2022/02/10 20:38:28;;;;;;;1.10;0.70;;;5.00;99.90;;;;;;5052335;28;20551;-73
2022/02/10 20:41:00;;;;;;;4.97;1.33;;;5.00;99.90;;;;;;5052641;28;20215;-75
2022/02/10 20:43:28;;;;;;;4.30;0.97;;;5.00;99.90;;;;;;5052027;28;20232;-71
2022/02/10 20:45:58;;;;;;;2.93;0.87;;;5.10;99.90;;;;;;5051521;28;20204;-75
2022/02/10 20:48:27;;;;;;;3.40;0.90;;;5.20;99.90;;;;;;5051226;28;20266;-74
2022/02/10 20:50:56;;;;;;;1.97;0.87;;;5.10;99.90;;;;;;5051723;28;20207;-73
2022/02/10 20:53:24;;;;;;;2.90;0.90;;;5.10;99.90;;;;;;5052080;28;20210;-75
2022/02/10 20:55:53;;;;;;;1.17;0.90;;;5.00;99.90;;;;;;5051938;28;20216;-75
2022/02/10 20:58:24;;;;;;;2.27;1.20;;;4.90;99.90;;;;;;5052211;28;20573;-75
2022/02/10 21:00:52;;;;;;;3.57;1.10;;;5.00;99.90;;;;;;5051872;28;20295;-75
2022/02/10 21:03:23;;;;;;;3.23;1.17;;;5.00;99.90;;;;;;5052114;28;20241;-75
2022/02/10 21:05:51;;;;;;;2.60;1.20;;;4.90;99.90;;;;;;5052171;28;20208;-74
2022/02/10 21:08:29;;;;;;;3.53;1.10;;;5.00;99.90;;;;;;5051741;28;20232;-74
2022/02/10 21:10:56;;;;;;;3.87;1.10;;;4.90;99.90;;;;;;5052503;28;20211;-75
2022/02/10 21:13:25;;;;;;;1.80;0.80;;;4.90;99.90;;;;;;5051855;28;20200;-72
2022/02/10 21:15:53;;;;;;;1.87;1.17;;;5.00;99.90;;;;;;5051502;28;20636;-75
2022/02/10 21:18:20;;;;;;;2.20;1.10;;;5.00;99.90;;;;;;5051655;28;20690;-72
2022/02/10 21:20:49;;;;;;;3.97;1.20;;;5.00;99.90;;;;;;5050211;28;20288;-72
2022/02/10 21:23:22;;;;;;;4.10;1.30;;;5.10;99.90;;;;;;5050503;28;20227;-75
2022/02/10 21:25:52;;;;;;;2.37;1.43;;;5.10;99.90;;;;;;5050405;28;20200;-74
2022/02/10 21:28:22;;;;;;;4.07;1.50;;;5.10;99.90;;;;;;5049064;28;20220;-73
2022/02/10 21:30:54;;;;;;;8.20;1.67;;;5.20;99.90;;;;;;5051160;28;20201;-74
2022/02/10 21:33:28;;;;;;;2.13;1.17;;;5.20;99.90;;;;;;5052232;28;20211;-74
2022/02/10 21:38:57;;;;;;;1.60;0.90;;;5.20;99.90;;;;;;4989673;28;20301;-75
2022/02/10 22:04:28;;;;;;;2.13;1.33;;;5.20;99.90;;;;;;5110774;27;20566;-72
2022/02/10 22:09:51;;;;;;;4.00;1.40;;;5.20;99.90;;;;;;5090023;28;20203;-66
2022/02/10 22:18:31;;;;;;;2.47;1.13;;;5.10;99.90;;;;;;5089210;28;20221;-71
2022/02/10 22:21:00;;;;;;;3.50;1.70;;;5.10;99.90;;;;;;5089199;28;20202;-65
2022/02/10 22:23:28;;;;;;;3.83;1.60;;;5.00;99.90;;;;;;5088938;28;20240;-67
2022/02/10 22:26:00;;;;;;;3.00;1.90;;;5.00;99.90;;;;;;5088819;28;20331;-71
2022/02/10 22:28:34;;;;;;;2.80;1.63;;;4.90;99.90;;;;;;5084420;28;20335;-73
2022/02/10 22:31:24;;;;;;;3.37;1.93;;;5.00;99.90;;;;;;5068179;28;20233;-70
2022/02/10 22:34:02;;;;;;;3.07;1.80;;;4.90;99.90;;;;;;5079220;28;20195;-66
2022/02/10 22:36:30;;;;;;;4.07;2.30;;;4.90;99.90;;;;;;5089655;28;20205;-68
2022/02/10 22:39:01;;;;;;;5.47;2.47;;;4.80;99.90;;;;;;5089019;28;20689;-67
2022/02/10 22:41:29;;;;;;;4.03;2.50;;;4.70;99.90;;;;;;5089281;28;20207;-74
2022/02/10 22:43:56;;;;;;;5.43;2.93;;;4.70;99.90;;;;;;5084590;28;20234;-72
2022/02/10 22:46:24;;;;;;;4.27;2.50;;;4.70;99.90;;;;;;5083213;28;20195;-69
2022/02/10 22:48:51;;;;;;;6.60;2.80;;;4.70;99.90;;;;;;5089599;28;20722;-76
2022/02/10 22:51:20;;;;;;;5.93;2.73;;;4.60;99.90;;;;;;5088918;28;20195;-66
2022/02/10 22:53:49;;;;;;;7.17;2.73;;;4.50;99.90;;;;;;5089634;28;20217;-70
2022/02/10 22:56:18;;;;;;;4.53;2.93;;;4.50;99.90;;;;;;5089560;28;20198;-66
2022/02/10 22:58:45;;;;;;;5.17;3.13;;;4.40;99.90;;;;;;5089497;28;20233;-65
2022/02/10 23:01:14;;;;;;;5.67;2.67;;;4.30;99.90;;;;;;5089497;28;20210;-73
2022/02/10 23:03:42;;;;;;;6.47;2.60;;;4.30;99.90;;;;;;5089231;28;20241;-74
2022/02/10 23:06:11;;;;;;;6.00;2.90;;;4.30;99.90;;;;;;5088334;28;20210;-74
2022/02/10 23:08:38;;;;;;;6.10;3.03;;;4.30;99.90;;;;;;5088700;28;20527;-74
2022/02/10 23:11:06;;;;;;;5.60;2.87;;;4.40;99.90;;;;;;5088518;28;20293;-75
2022/02/10 23:13:35;;;;;;;14.33;3.57;;;4.40;99.90;;;;;;5085178;28;20625;-74
2022/02/10 23:16:04;;;;;;;7.37;3.20;;;4.40;99.90;;;;;;5077616;28;20199;-72
2022/02/10 23:18:33;;;;;;;6.07;3.00;;;4.40;99.90;;;;;;5080626;28;20803;-74
2022/02/10 23:21:02;;;;;;;4.30;2.60;;;4.40;99.90;;;;;;5084457;28;20238;-74
2022/02/10 23:23:31;;;;;;;6.87;3.00;;;4.30;99.90;;;;;;5085736;28;20226;-75
2022/02/10 23:26:00;;;;;;;5.73;2.90;;;4.20;99.90;;;;;;5084585;28;20191;-76
2022/02/10 23:28:30;;;;;;;6.60;3.10;;;4.10;99.90;;;;;;5083604;28;20211;-77
2022/02/10 23:30:58;;;;;;;8.30;2.93;;;4.20;99.90;;;;;;5085094;28;20213;-76
2022/02/10 23:33:28;;;;;;;5.63;2.70;;;4.20;99.90;;;;;;5080665;28;20205;-76
2022/02/10 23:38:57;;;;;;;9.30;3.23;;;4.40;99.90;;;;;;5074118;28;20219;-73
2022/02/10 23:41:54;;;;;;;5.20;2.57;;;4.40;99.90;;;;;;5074501;28;20199;-75
2022/02/10 23:44:26;;;;;;;8.60;3.00;;;4.50;99.90;;;;;;5054350;28;20307;-77
2022/02/10 23:46:53;;;;;;;8.37;2.70;;;4.60;99.90;;;;;;5054817;28;20269;-66
2022/02/10 23:49:22;;;;;;;6.03;3.07;;;4.60;99.90;;;;;;5054730;28;20568;-76
2022/02/10 23:51:55;;;;;;;6.47;3.00;;;4.50;99.90;;;;;;5054544;28;20658;-74
2022/02/10 23:54:22;;;;;;;7.33;2.60;;;4.50;99.90;;;;;;5054584;28;20208;-75
2022/02/10 23:56:54;;;;;;;4.93;2.63;;;4.40;99.90;;;;;;5054719;28;20200;-71
2022/02/10 23:59:34;;;;;;;5.57;2.77;;;4.30;99.90;;;;;;5054439;28;20255;-72
